createdAt,value
2023-05-02T00:00:51.357Z,12.80
2023-05-02T00:03:18.496Z,12.80
2023-05-02T00:05:45.447Z,12.70
2023-05-02T00:08:12.816Z,12.70
2023-05-02T00:10:39.583Z,12.70
2023-05-02T00:13:06.380Z,12.70
2023-05-02T00:15:33.154Z,12.60
2023-05-02T00:18:00.366Z,12.60
2023-05-02T00:20:27.256Z,12.60
2023-05-02T00:22:56.193Z,12.60
2023-05-02T00:25:23.624Z,12.50
2023-05-02T00:27:51.321Z,12.50
2023-05-02T00:30:18.780Z,12.50
2023-05-02T00:32:45.850Z,12.40
2023-05-02T00:35:12.914Z,12.40
2023-05-02T00:37:39.714Z,12.30
2023-05-02T00:40:08.388Z,12.40
2023-05-02T00:42:36.568Z,12.30
2023-05-02T00:45:06.861Z,12.30
2023-05-02T00:47:34.361Z,12.30
2023-05-02T00:50:01.969Z,12.30
2023-05-02T00:52:29.379Z,12.20
2023-05-02T00:54:56.520Z,12.20
2023-05-02T00:57:23.504Z,12.20
2023-05-02T00:59:51.074Z,12.20
2023-05-02T01:02:59.686Z,12.10
2023-05-02T01:05:50.039Z,12.10
2023-05-02T01:08:20.571Z,12.00
2023-05-02T01:11:01.788Z,12.00
2023-05-02T01:13:32.540Z,12.00
2023-05-02T01:16:01.624Z,12.00
2023-05-02T01:18:31.626Z,12.00
2023-05-02T01:21:01.441Z,11.90
2023-05-02T01:23:52.525Z,11.90
2023-05-02T01:26:41.125Z,11.90
2023-05-02T01:29:09.281Z,11.90
2023-05-02T01:31:38.888Z,11.80
2023-05-02T01:34:10.088Z,11.80
2023-05-02T01:36:39.110Z,11.70
2023-05-02T01:39:07.558Z,11.70
2023-05-02T01:41:35.841Z,11.70
2023-05-02T01:44:03.567Z,11.70
2023-05-02T01:46:36.800Z,11.70
2023-05-02T01:49:05.549Z,11.70
2023-05-02T01:51:34.794Z,11.70
2023-05-02T01:54:05.668Z,11.70
2023-05-02T01:56:35.412Z,11.60
2023-05-02T01:59:04.732Z,11.70
2023-05-02T02:01:31.710Z,11.60
2023-05-02T02:03:59.945Z,11.60
2023-05-02T02:06:27.645Z,11.60
2023-05-02T02:08:55.035Z,11.60
2023-05-02T02:11:25.626Z,11.50
2023-05-02T02:13:57.642Z,11.50
2023-05-02T02:16:30.841Z,11.50
2023-05-02T02:18:59.430Z,11.40
2023-05-02T02:21:28.908Z,11.40
2023-05-02T02:23:57.632Z,11.40
2023-05-02T02:26:24.479Z,11.30
2023-05-02T02:28:51.289Z,11.30
2023-05-02T02:31:18.099Z,11.30
2023-05-02T02:33:44.900Z,11.20
2023-05-02T02:36:15.697Z,11.20
2023-05-02T02:38:47.104Z,11.10
2023-05-02T02:41:22.682Z,11.10
2023-05-02T02:44:14.530Z,11.10
2023-05-02T02:46:56.534Z,11.00
2023-05-02T02:49:31.757Z,11.00
2023-05-02T02:52:03.956Z,10.90
2023-05-02T02:54:35.692Z,10.90
2023-05-02T02:57:07.977Z,10.90
2023-05-02T02:59:38.916Z,10.90
2023-05-02T03:02:10.460Z,10.90
2023-05-02T03:04:43.990Z,10.90
2023-05-02T03:07:10.837Z,10.80
2023-05-02T03:09:45.002Z,10.80
2023-05-02T03:12:12.342Z,10.80
2023-05-02T03:14:39.828Z,10.70
2023-05-02T03:17:08.494Z,10.70
2023-05-02T03:19:35.890Z,10.70
2023-05-02T03:22:03.348Z,10.70
2023-05-02T03:24:30.157Z,10.60
2023-05-02T03:26:59.137Z,10.60
2023-05-02T03:29:26.858Z,10.60
2023-05-02T03:31:53.634Z,10.60
2023-05-02T03:34:22.493Z,10.50
2023-05-02T03:36:49.330Z,10.50
2023-05-02T03:39:16.220Z,10.50
2023-05-02T03:41:43.901Z,10.40
2023-05-02T03:44:11.311Z,10.50
2023-05-02T03:46:38.259Z,10.40
2023-05-02T03:49:05.177Z,10.40
2023-05-02T03:51:33.839Z,10.40
2023-05-02T03:54:02.576Z,10.40
2023-05-02T03:56:29.489Z,10.40
2023-05-02T03:58:56.262Z,10.40
2023-05-02T04:01:23.536Z,10.40
2023-05-02T04:03:53.151Z,10.40
2023-05-02T04:06:20.064Z,10.30
2023-05-02T04:08:46.941Z,10.40
2023-05-02T04:11:13.768Z,10.40
2023-05-02T04:13:40.599Z,10.40
2023-05-02T04:16:07.499Z,10.40
2023-05-02T04:18:34.413Z,10.40
2023-05-02T04:21:01.143Z,10.40
2023-05-02T04:23:27.983Z,10.40
2023-05-02T04:25:56.321Z,10.40
2023-05-02T04:28:23.314Z,10.40
2023-05-02T04:30:50.591Z,10.40
2023-05-02T04:33:18.607Z,10.40
2023-05-02T04:35:45.547Z,10.40
2023-05-02T04:38:12.366Z,10.50
2023-05-02T04:40:39.205Z,10.50
2023-05-02T04:43:06.025Z,10.40
2023-05-02T04:45:32.832Z,10.50
2023-05-02T04:47:59.708Z,10.50
2023-05-02T04:50:28.232Z,10.40
2023-05-02T04:52:55.462Z,10.50
2023-05-02T04:55:22.618Z,10.50
2023-05-02T04:57:49.453Z,10.50
2023-05-02T05:00:16.418Z,10.50
2023-05-02T05:02:43.441Z,10.50
2023-05-02T05:05:10.411Z,10.50
2023-05-02T05:07:37.419Z,10.50
2023-05-02T05:10:04.463Z,10.50
2023-05-02T05:12:31.255Z,10.50
2023-05-02T05:14:58.025Z,10.60
2023-05-02T05:17:24.819Z,10.50
2023-05-02T05:19:51.574Z,10.50
2023-05-02T05:22:18.933Z,10.50
2023-05-02T05:24:52.633Z,10.50
2023-05-02T05:27:19.511Z,10.40
2023-05-02T05:29:46.295Z,10.40
2023-05-02T05:32:13.143Z,10.50
2023-05-02T05:34:39.977Z,10.40
2023-05-02T05:37:06.902Z,10.40
2023-05-02T05:39:34.243Z,10.40
2023-05-02T05:42:01.544Z,10.40
2023-05-02T05:44:28.462Z,10.40
2023-05-02T05:46:55.239Z,10.40
2023-05-02T05:49:22.361Z,10.40
2023-05-02T05:51:49.287Z,10.40
2023-05-02T05:54:17.183Z,10.40
2023-05-02T05:56:44.410Z,10.50
2023-05-02T05:59:11.219Z,10.50
2023-05-02T06:01:38.158Z,10.50
2023-05-02T06:04:05.824Z,10.50
2023-05-02T06:06:33.360Z,10.50
2023-05-02T06:09:00.874Z,10.50
2023-05-02T06:11:27.704Z,10.50
2023-05-02T06:13:54.694Z,10.50
2023-05-02T06:16:21.572Z,10.50
2023-05-02T06:18:50.747Z,10.50
2023-05-02T06:21:17.524Z,10.60
2023-05-02T06:23:44.379Z,10.60
2023-05-02T06:26:11.260Z,10.60
2023-05-02T06:28:38.043Z,10.60
2023-05-02T06:31:05.976Z,10.60
2023-05-02T06:33:33.549Z,10.60
2023-05-02T06:36:01.848Z,10.60
2023-05-02T06:38:29.366Z,10.70
2023-05-02T06:40:56.211Z,10.70
2023-05-02T06:43:22.970Z,10.80
2023-05-02T06:45:53.010Z,10.90
2023-05-02T06:48:20.083Z,10.90
2023-05-02T06:50:47.299Z,11.00
2023-05-02T06:53:14.096Z,11.00
2023-05-02T06:55:41.005Z,11.00
2023-05-02T06:58:07.787Z,11.00
2023-05-02T07:00:34.558Z,11.10
2023-05-02T07:03:01.533Z,11.10
2023-05-02T07:05:29.684Z,11.10
2023-05-02T07:07:56.432Z,11.20
2023-05-02T07:10:23.297Z,11.10
2023-05-02T07:12:50.160Z,11.10
2023-05-02T07:15:17.086Z,11.10
2023-05-02T07:17:44.294Z,11.10
2023-05-02T07:20:12.174Z,11.20
2023-05-02T07:22:38.946Z,11.20
2023-05-02T07:25:06.403Z,11.20
2023-05-02T07:27:33.176Z,11.20
2023-05-02T07:30:00.230Z,11.30
2023-05-02T07:32:27.960Z,11.30
2023-05-02T07:34:56.144Z,11.30
2023-05-02T07:37:23.345Z,11.40
2023-05-02T07:39:50.232Z,11.50
2023-05-02T07:42:17.025Z,11.60
2023-05-02T07:44:43.780Z,11.50
2023-05-02T07:47:10.567Z,11.50
2023-05-02T07:49:37.543Z,11.60
2023-05-02T07:52:04.535Z,11.60
2023-05-02T07:54:31.307Z,11.60
2023-05-02T07:57:02.261Z,11.60
2023-05-02T07:59:31.312Z,11.60
2023-05-02T08:01:58.569Z,11.70
2023-05-02T08:04:26.034Z,11.70
2023-05-02T08:06:53.010Z,11.80
2023-05-02T08:09:19.879Z,11.80
2023-05-02T08:11:46.975Z,12.00
2023-05-02T08:14:14.999Z,12.10
2023-05-02T08:16:43.539Z,12.30
2023-05-02T08:19:12.383Z,12.40
2023-05-02T08:21:39.167Z,12.40
2023-05-02T08:24:06.159Z,12.30
2023-05-02T08:26:33.060Z,12.40
2023-05-02T08:29:00.063Z,12.40
2023-05-02T08:31:26.979Z,12.50
2023-05-02T08:33:53.793Z,12.60
2023-05-02T08:36:20.607Z,12.70
2023-05-02T08:38:47.949Z,12.80
2023-05-02T08:41:17.731Z,13.10
2023-05-02T08:43:45.976Z,13.30
2023-05-02T08:46:15.213Z,13.40
2023-05-02T08:48:44.217Z,13.80
2023-05-02T08:51:14.206Z,14.10
2023-05-02T08:53:41.594Z,14.40
2023-05-02T08:56:09.692Z,14.50
2023-05-02T08:58:37.454Z,14.50
2023-05-02T09:01:10.850Z,14.50
2023-05-02T09:03:37.722Z,14.60
2023-05-02T09:06:08.545Z,14.60
2023-05-02T09:08:36.464Z,14.60
2023-05-02T09:11:04.920Z,14.50
2023-05-02T09:13:35.672Z,14.70
2023-05-02T09:16:07.955Z,14.70
2023-05-02T09:18:36.709Z,14.90
2023-05-02T09:21:09.095Z,15.00
2023-05-02T09:23:40.766Z,15.10
2023-05-02T09:26:27.864Z,14.90
2023-05-02T09:28:56.005Z,15.10
2023-05-02T09:31:49.741Z,15.20
2023-05-02T09:34:16.680Z,15.40
2023-05-02T09:36:47.511Z,15.50
2023-05-02T09:39:21.912Z,15.50
2023-05-02T09:41:49.594Z,15.60
2023-05-02T09:44:23.162Z,15.50
2023-05-02T09:46:51.129Z,15.50
2023-05-02T09:49:21.107Z,15.50
2023-05-02T09:51:48.525Z,15.40
2023-05-02T09:54:36.296Z,15.50
2023-05-02T09:57:03.749Z,15.40
2023-05-02T09:59:30.822Z,15.60
2023-05-02T10:02:00.173Z,15.70
2023-05-02T10:04:28.339Z,15.70
2023-05-02T10:06:56.210Z,15.70
2023-05-02T10:09:23.417Z,15.80
2023-05-02T10:11:54.028Z,15.70
2023-05-02T10:14:22.699Z,15.80
2023-05-02T10:16:52.306Z,15.70
2023-05-02T10:19:24.043Z,15.80
2023-05-02T10:21:51.432Z,15.70
2023-05-02T10:24:18.330Z,15.80
2023-05-02T10:26:45.363Z,15.80
2023-05-02T10:29:12.251Z,15.80
2023-05-02T10:31:41.892Z,15.70
2023-05-02T10:34:12.091Z,15.70
2023-05-02T10:36:38.900Z,15.80
2023-05-02T10:39:06.761Z,15.80
2023-05-02T10:41:34.482Z,15.90
2023-05-02T10:44:02.434Z,15.90
2023-05-02T10:46:43.504Z,15.90
2023-05-02T10:49:12.485Z,15.90
2023-05-02T10:51:41.917Z,16.00
2023-05-02T10:54:18.164Z,16.00
2023-05-02T10:57:05.777Z,16.10
2023-05-02T10:59:42.654Z,16.20
2023-05-02T11:02:23.508Z,16.40
2023-05-02T11:05:09.551Z,16.40
2023-05-02T11:07:37.822Z,16.40
2023-05-02T11:10:22.646Z,16.50
2023-05-02T11:12:53.752Z,16.40
2023-05-02T11:15:29.570Z,16.40
2023-05-02T11:18:07.793Z,16.50
2023-05-02T11:20:35.991Z,16.40
2023-05-02T11:23:21.649Z,16.60
2023-05-02T11:25:49.934Z,16.50
2023-05-02T11:28:38.648Z,16.60
2023-05-02T11:31:06.666Z,16.60
2023-05-02T11:33:34.380Z,16.90
2023-05-02T11:36:01.504Z,16.90
2023-05-02T11:38:38.511Z,17.00
2023-05-02T11:41:05.467Z,17.30
2023-05-02T11:43:32.820Z,17.30
2023-05-02T11:46:01.914Z,17.10
2023-05-02T11:48:29.133Z,17.30
2023-05-02T11:51:05.031Z,17.40
2023-05-02T11:53:32.902Z,17.60
2023-05-02T11:56:01.284Z,17.50
2023-05-02T11:58:30.077Z,17.40
2023-05-02T12:00:57.310Z,17.60
2023-05-02T12:03:32.004Z,17.80
2023-05-02T12:06:12.990Z,18.00
2023-05-02T12:08:40.998Z,18.10
2023-05-02T12:11:07.963Z,18.30
2023-05-02T12:13:34.957Z,18.20
2023-05-02T12:16:02.233Z,18.30
2023-05-02T12:18:29.086Z,18.30
2023-05-02T12:20:56.648Z,18.40
2023-05-02T12:23:24.796Z,18.50
2023-05-02T12:25:51.757Z,18.50
2023-05-02T12:28:19.823Z,18.70
2023-05-02T12:30:50.923Z,18.70
2023-05-02T12:33:18.647Z,18.60
2023-05-02T12:35:47.652Z,18.80
2023-05-02T12:38:22.738Z,19.10
2023-05-02T12:40:52.142Z,19.00
2023-05-02T12:43:20.256Z,19.10
2023-05-02T12:45:48.839Z,19.30
2023-05-02T12:48:26.844Z,19.40
2023-05-02T12:50:55.385Z,19.60
2023-05-02T12:53:45.819Z,19.50
2023-05-02T12:56:13.457Z,19.30
2023-05-02T12:58:47.515Z,19.50
2023-05-02T13:01:15.716Z,19.60
2023-05-02T13:03:43.609Z,19.60
2023-05-02T13:06:11.093Z,19.60
2023-05-02T13:08:38.384Z,19.80
2023-05-02T13:11:05.251Z,19.80
2023-05-02T13:13:32.750Z,19.70
2023-05-02T13:15:59.756Z,20.10
2023-05-02T13:18:28.232Z,20.10
2023-05-02T13:20:55.372Z,20.30
2023-05-02T13:23:22.275Z,20.30
2023-05-02T13:25:49.048Z,20.40
2023-05-02T13:28:15.888Z,20.50
2023-05-02T13:30:42.680Z,20.50
2023-05-02T13:33:09.573Z,20.50
2023-05-02T13:35:36.464Z,20.40
2023-05-02T13:38:03.845Z,20.70
2023-05-02T13:40:30.805Z,20.90
2023-05-02T13:42:57.656Z,20.80
2023-05-02T13:45:24.432Z,20.90
2023-05-02T13:47:51.247Z,20.80
2023-05-02T13:50:18.007Z,21.20
2023-05-02T13:52:47.001Z,21.50
2023-05-02T13:55:15.232Z,21.80
2023-05-02T13:57:42.165Z,21.80
2023-05-02T14:00:09.967Z,21.90
2023-05-02T14:02:37.651Z,21.80
2023-05-02T14:05:04.953Z,21.90
2023-05-02T14:07:32.375Z,21.60
2023-05-02T14:09:59.374Z,21.30
2023-05-02T14:12:26.408Z,21.40
2023-05-02T14:14:53.556Z,21.80
2023-05-02T14:17:21.383Z,21.70
2023-05-02T14:19:48.202Z,21.80
2023-05-02T14:22:14.995Z,22.20
2023-05-02T14:24:41.799Z,22.60
2023-05-02T14:27:17.927Z,22.40
2023-05-02T14:29:48.061Z,22.70
2023-05-02T14:32:15.270Z,22.80
2023-05-02T14:34:42.180Z,23.00
2023-05-02T14:37:09.268Z,23.00
2023-05-02T14:39:36.941Z,23.40
2023-05-02T14:42:04.631Z,23.20
2023-05-02T14:44:31.810Z,23.30
2023-05-02T14:46:58.766Z,23.30
2023-05-02T14:49:25.741Z,23.30
2023-05-02T14:51:52.872Z,23.50
2023-05-02T14:54:20.461Z,23.60
2023-05-02T14:56:48.331Z,23.70
2023-05-02T14:59:15.150Z,24.00
2023-05-02T15:01:42.200Z,24.10
2023-05-02T15:04:09.297Z,24.10
2023-05-02T15:06:37.076Z,24.20
2023-05-02T15:09:04.988Z,24.20
2023-05-02T15:11:31.981Z,24.10
2023-05-02T15:13:59.403Z,24.10
2023-05-02T15:16:29.590Z,24.40
2023-05-02T15:18:56.523Z,24.50
2023-05-02T15:21:23.311Z,24.70
2023-05-02T15:23:50.184Z,24.90
2023-05-02T15:26:16.998Z,25.00
2023-05-02T15:28:43.853Z,25.20
2023-05-02T15:31:10.788Z,25.00
2023-05-02T15:33:37.904Z,25.20
2023-05-02T15:36:04.879Z,24.90
2023-05-02T15:38:34.049Z,24.90
2023-05-02T15:41:00.853Z,24.70
2023-05-02T15:43:27.855Z,24.40
2023-05-02T15:45:56.356Z,25.00
2023-05-02T15:48:24.033Z,25.00
2023-05-02T15:50:52.571Z,25.20
2023-05-02T15:53:20.848Z,25.00
2023-05-02T15:55:47.774Z,24.90
2023-05-02T15:58:16.307Z,24.50
2023-05-02T16:00:43.818Z,25.10
2023-05-02T16:03:12.287Z,25.60
2023-05-02T16:05:39.552Z,25.70
2023-05-02T16:08:06.338Z,25.60
2023-05-02T16:10:33.272Z,25.30
2023-05-02T16:13:00.076Z,25.10
2023-05-02T16:15:26.843Z,25.00
2023-05-02T16:17:53.760Z,24.80
2023-05-02T16:20:20.634Z,25.20
2023-05-02T16:22:48.577Z,25.10
2023-05-02T16:25:16.681Z,24.90
2023-05-02T16:27:43.563Z,24.70
2023-05-02T16:30:10.962Z,25.10
2023-05-02T16:32:37.919Z,25.10
2023-05-02T16:35:07.426Z,25.30
2023-05-02T16:37:35.073Z,25.70
2023-05-02T16:40:02.920Z,25.70
2023-05-02T16:42:30.034Z,26.00
2023-05-02T16:44:57.555Z,26.10
2023-05-02T16:47:24.320Z,25.80
2023-05-02T16:49:55.569Z,25.70
2023-05-02T16:52:22.430Z,25.90
2023-05-02T16:54:49.489Z,26.30
2023-05-02T16:57:19.758Z,26.60
2023-05-02T16:59:47.766Z,25.80
2023-05-02T17:02:15.755Z,25.50
2023-05-02T17:04:43.460Z,25.70
2023-05-02T17:07:13.707Z,25.50
2023-05-02T17:09:41.814Z,24.90
2023-05-02T17:12:14.629Z,24.70
2023-05-02T17:14:42.733Z,24.50
2023-05-02T17:17:09.814Z,24.10
2023-05-02T17:19:37.061Z,24.00
2023-05-02T17:22:05.312Z,23.30
2023-05-02T17:24:33.250Z,23.40
2023-05-02T17:27:00.963Z,23.40
2023-05-02T17:29:27.944Z,23.10
2023-05-02T17:31:57.250Z,22.90
2023-05-02T17:34:28.452Z,22.50
2023-05-02T17:36:56.007Z,22.50
2023-05-02T17:39:23.497Z,22.50
2023-05-02T17:41:50.385Z,22.50
2023-05-02T17:44:17.545Z,22.40
2023-05-02T17:46:44.620Z,22.30
2023-05-02T17:49:11.661Z,22.40
2023-05-02T17:51:38.507Z,22.40
2023-05-02T17:54:05.603Z,22.50
2023-05-02T17:56:35.090Z,21.90
2023-05-02T17:59:01.979Z,21.60
2023-05-02T18:01:29.288Z,21.50
2023-05-02T18:03:56.310Z,21.30
2023-05-02T18:06:23.233Z,21.20
2023-05-02T18:08:50.153Z,21.20
2023-05-02T18:11:18.018Z,20.90
2023-05-02T18:13:45.044Z,21.00
2023-05-02T18:16:12.252Z,21.00
2023-05-02T18:18:39.461Z,21.00
2023-05-02T18:21:06.373Z,20.90
2023-05-02T18:23:33.465Z,20.90
2023-05-02T18:26:00.439Z,21.10
2023-05-02T18:28:27.534Z,20.90
2023-05-02T18:30:54.343Z,20.70
2023-05-02T18:33:21.233Z,20.40
2023-05-02T18:35:48.895Z,20.10
2023-05-02T18:38:16.151Z,20.10
2023-05-02T18:40:43.374Z,20.00
2023-05-02T18:43:10.247Z,20.10
2023-05-02T18:45:36.984Z,20.00
2023-05-02T18:48:04.062Z,20.10
2023-05-02T18:50:30.901Z,20.00
2023-05-02T18:52:57.667Z,19.80
2023-05-02T18:55:25.467Z,19.60
2023-05-02T18:57:52.490Z,19.70
2023-05-02T19:00:20.492Z,19.40
2023-05-02T19:02:47.949Z,19.40
2023-05-02T19:05:15.161Z,19.30
2023-05-02T19:07:42.436Z,19.30
2023-05-02T19:10:11.112Z,19.10
2023-05-02T19:12:38.458Z,18.90
2023-05-02T19:15:06.781Z,18.60
2023-05-02T19:17:33.833Z,18.60
2023-05-02T19:20:01.291Z,18.70
2023-05-02T19:22:28.108Z,18.30
2023-05-02T19:24:55.268Z,18.20
2023-05-02T19:27:22.063Z,17.90
2023-05-02T19:29:53.031Z,17.80
2023-05-02T19:32:22.012Z,17.80
2023-05-02T19:34:48.790Z,17.60
2023-05-02T19:37:15.622Z,17.60
2023-05-02T19:39:42.425Z,17.70
2023-05-02T19:42:09.415Z,17.80
2023-05-02T19:44:36.257Z,18.00
2023-05-02T19:47:03.176Z,17.80
2023-05-02T19:49:29.980Z,17.70
2023-05-02T19:51:56.803Z,17.60
2023-05-02T19:54:23.878Z,17.30
2023-05-02T19:56:50.782Z,17.20
2023-05-02T19:59:17.790Z,17.00
2023-05-02T20:01:45.066Z,16.90
2023-05-02T20:04:12.079Z,16.80
2023-05-02T20:06:38.925Z,16.80
2023-05-02T20:09:05.794Z,16.80
2023-05-02T20:11:32.942Z,16.70
2023-05-02T20:14:00.324Z,16.70
2023-05-02T20:16:27.352Z,16.70
2023-05-02T20:18:54.283Z,16.70
2023-05-02T20:21:21.078Z,16.70
2023-05-02T20:23:47.923Z,16.30
2023-05-02T20:26:16.465Z,16.10
2023-05-02T20:28:43.674Z,16.10
2023-05-02T20:31:10.996Z,16.00
2023-05-02T20:33:45.234Z,15.90
2023-05-02T20:36:13.549Z,15.80
2023-05-02T20:38:42.361Z,15.70
2023-05-02T20:41:12.480Z,15.70
2023-05-02T20:43:41.530Z,15.80
2023-05-02T20:46:12.257Z,15.70
2023-05-02T20:48:39.303Z,15.70
2023-05-02T20:51:06.691Z,15.70
2023-05-02T20:53:33.852Z,15.70
2023-05-02T20:56:00.916Z,15.60
2023-05-02T20:58:27.679Z,15.40
2023-05-02T21:00:54.447Z,15.40
2023-05-02T21:03:22.071Z,15.30
2023-05-02T21:05:53.541Z,15.20
2023-05-02T21:08:20.631Z,15.10
2023-05-02T21:10:47.968Z,15.00
2023-05-02T21:13:14.754Z,14.90
2023-05-02T21:15:41.779Z,14.80
2023-05-02T21:18:08.639Z,14.70
2023-05-02T21:20:36.119Z,14.70
2023-05-02T21:23:03.000Z,14.70
2023-05-02T21:25:29.796Z,14.50
2023-05-02T21:27:56.628Z,14.30
2023-05-02T21:30:24.475Z,14.40
2023-05-02T21:32:51.417Z,14.40
2023-05-02T21:35:18.267Z,14.20
2023-05-02T21:37:45.040Z,14.00
2023-05-02T21:40:12.482Z,13.80
2023-05-02T21:42:39.378Z,13.70
2023-05-02T21:45:06.870Z,13.60
2023-05-02T21:47:33.760Z,13.40
2023-05-02T21:50:00.717Z,13.20
2023-05-02T21:52:28.171Z,13.00
2023-05-02T21:54:54.892Z,12.90
2023-05-02T21:57:21.627Z,12.70
2023-05-02T21:59:48.427Z,12.60
2023-05-02T22:02:15.222Z,12.40
2023-05-02T22:04:43.056Z,12.20
2023-05-02T22:07:10.436Z,12.30
2023-05-02T22:09:37.311Z,12.20
2023-05-02T22:12:04.250Z,12.30
2023-05-02T22:14:41.479Z,12.20
2023-05-02T22:17:11.663Z,12.20
2023-05-02T22:19:39.273Z,12.00
2023-05-02T22:22:06.713Z,12.00
2023-05-02T22:24:33.782Z,12.10
2023-05-02T22:27:00.577Z,12.10
2023-05-02T22:29:27.331Z,12.10
2023-05-02T22:31:54.206Z,12.00
2023-05-02T22:34:21.057Z,11.90
2023-05-02T22:36:47.876Z,11.80
2023-05-02T22:39:15.720Z,11.80
2023-05-02T22:41:43.215Z,11.80
2023-05-02T22:44:11.026Z,11.80
2023-05-02T22:46:38.837Z,11.70
2023-05-02T22:49:09.506Z,11.70
2023-05-02T22:51:40.376Z,11.60
2023-05-02T22:54:08.181Z,11.50
2023-05-02T22:56:35.063Z,11.40
2023-05-02T22:59:01.912Z,11.40
2023-05-02T23:01:28.875Z,11.40
2023-05-02T23:03:55.931Z,11.50
2023-05-02T23:06:22.961Z,11.40
2023-05-02T23:08:49.729Z,11.30
2023-05-02T23:11:16.786Z,11.20
2023-05-02T23:13:43.538Z,11.20
2023-05-02T23:16:10.509Z,11.10
2023-05-02T23:18:37.345Z,11.00
2023-05-02T23:21:04.703Z,10.90
2023-05-02T23:23:31.682Z,10.80
2023-05-02T23:25:58.559Z,10.70
2023-05-02T23:28:26.202Z,10.60
2023-05-02T23:30:53.877Z,10.50
2023-05-02T23:33:21.230Z,10.50
2023-05-02T23:35:48.150Z,10.30
2023-05-02T23:38:15.028Z,10.30
2023-05-02T23:40:41.801Z,10.10
2023-05-02T23:43:08.965Z,10.00
2023-05-02T23:45:35.941Z,9.90
2023-05-02T23:48:03.220Z,9.90
2023-05-02T23:50:31.808Z,9.80
2023-05-02T23:52:58.574Z,9.70
2023-05-02T23:55:25.801Z,9.70
2023-05-02T23:57:52.553Z,9.60
